Time;durP1;ratioP1;P1;durP2;ratioP2;P2;SDS_P1;SDS_P2;PMS_P1;PMS_P2;Temp;Humidity;BMP_temperature;BMP_pressure;BME280_temperature;BME280_humidity;BME280_pressure;Samples;Min_cycle;Max_cycle;Signal;HPM_P1;HPM_P2
2024/01/31 00:02:22;;;;;;;41.20;24.50;;;;;;;4.42;77.01;102203.46;108918;1254;60331;-58
2024/01/31 00:04:49;;;;;;;38.40;23.30;;;;;;;4.39;76.95;102200.30;109008;1255;73533;-59
2024/01/31 00:07:16;;;;;;;34.60;23.60;;;;;;;4.38;77.08;102203.69;108458;1257;137922;-59
2024/01/31 00:09:43;;;;;;;38.90;25.20;;;;;;;4.37;77.05;102197.67;104718;1262;73880;-58
2024/01/31 00:12:09;;;;;;;39.30;24.80;;;;;;;4.35;77.04;102190.94;104897;1256;138881;-58
2024/01/31 00:14:36;;;;;;;37.30;23.90;;;;;;;4.33;77.09;102190.78;104837;1256;61334;-60
2024/01/31 00:17:03;;;;;;;40.10;24.70;;;;;;;4.30;77.15;102190.45;104870;1256;139218;-60
2024/01/31 00:19:30;;;;;;;35.10;23.20;;;;;;;4.29;77.23;102193.34;109080;1258;66274;-60
2024/01/31 00:21:57;;;;;;;38.50;25.00;;;;;;;4.28;77.24;102193.29;109029;1256;73279;-59
2024/01/31 00:24:23;;;;;;;38.70;24.70;;;;;;;4.32;77.41;102198.24;108989;1254;138576;-59
2024/01/31 00:26:50;;;;;;;38.40;24.40;;;;;;;4.41;77.50;102198.66;109008;1254;59277;-59
2024/01/31 00:29:17;;;;;;;40.30;24.70;;;;;;;4.49;77.53;102197.50;109099;1256;138941;-59
2024/01/31 00:31:43;;;;;;;37.10;25.00;;;;;;;4.58;77.54;102204.59;108960;1256;67639;-60
2024/01/31 00:34:10;;;;;;;38.80;25.00;;;;;;;4.67;77.50;102209.43;109077;1257;71843;-60
2024/01/31 00:36:37;;;;;;;41.60;26.40;;;;;;;4.74;77.37;102210.33;109053;1254;138054;-59
2024/01/31 00:39:05;;;;;;;38.20;24.30;;;;;;;4.79;77.32;102213.08;109183;1255;59928;-59
2024/01/31 00:41:31;;;;;;;43.10;26.90;;;;;;;4.84;77.18;102216.07;108852;1257;138317;-59
2024/01/31 00:43:58;;;;;;;45.70;26.40;;;;;;;4.89;77.15;102213.79;109033;1254;66399;-60
2024/01/31 00:46:25;;;;;;;39.70;27.00;;;;;;;4.93;76.96;102209.01;108596;1254;73254;-59
2024/01/31 00:48:52;;;;;;;41.10;26.50;;;;;;;4.94;76.97;102199.70;104770;1256;138938;-59
2024/01/31 00:51:18;;;;;;;42.30;27.30;;;;;;;4.96;76.85;102198.14;104774;1257;61326;-59
2024/01/31 00:53:45;;;;;;;45.70;26.90;;;;;;;4.96;76.81;102199.17;104771;1255;138799;-59
2024/01/31 00:56:13;;;;;;;44.50;27.50;;;;;;;4.95;76.63;102193.51;104870;1261;65597;-60
2024/01/31 00:58:40;;;;;;;39.50;26.40;;;;;;;4.92;76.67;102192.95;104961;1256;71972;-61
2024/01/31 01:01:06;;;;;;;43.70;27.40;;;;;;;4.89;76.67;102191.38;104723;1257;139564;-59
2024/01/31 01:03:33;;;;;;;43.10;28.60;;;;;;;4.89;76.65;102190.68;105006;1258;61253;-59
2024/01/31 01:06:01;;;;;;;46.30;28.20;;;;;;;4.87;76.57;102186.33;104990;1257;138143;-59
2024/01/31 01:08:28;;;;;;;47.00;28.70;;;;;;;4.86;76.64;102183.02;104971;1260;65800;-58
2024/01/31 01:10:55;;;;;;;47.30;29.30;;;;;;;4.87;76.76;102183.56;104968;1259;72911;-59
2024/01/31 01:13:22;;;;;;;47.50;29.80;;;;;;;4.86;76.71;102179.33;109028;1256;138109;-59
2024/01/31 01:15:49;;;;;;;44.90;29.40;;;;;;;4.86;76.70;102181.75;106692;1257;61365;-59
2024/01/31 01:18:15;;;;;;;48.50;28.40;;;;;;;4.88;76.86;102177.75;104729;1257;139004;-59
2024/01/31 01:20:42;;;;;;;49.30;28.30;;;;;;;4.89;76.72;102172.73;104727;1258;66866;-59
2024/01/31 01:23:09;;;;;;;48.90;28.30;;;;;;;4.87;76.72;102174.38;104948;1257;139103;-59
2024/01/31 01:25:36;;;;;;;46.20;27.30;;;;;;;4.84;76.65;102173.78;104624;1257;61252;-59
2024/01/31 01:28:03;;;;;;;41.70;26.60;;;;;;;4.80;76.69;102166.91;104607;1256;61290;-60
2024/01/31 01:30:29;;;;;;;46.30;27.90;;;;;;;4.81;76.81;102171.99;104598;1256;138710;-59
2024/01/31 01:32:56;;;;;;;38.60;25.10;;;;;;;4.82;76.82;102169.81;104895;1257;67023;-64
2024/01/31 01:35:23;;;;;;;49.40;28.10;;;;;;;4.85;77.02;102170.77;104880;1256;139085;-60
2024/01/31 01:37:50;;;;;;;46.50;27.60;;;;;;;4.89;76.92;102168.04;105090;1257;61342;-60
2024/01/31 01:40:17;;;;;;;49.30;28.00;;;;;;;4.93;76.99;102166.92;104863;1259;61253;-60
2024/01/31 01:42:44;;;;;;;46.50;28.20;;;;;;;4.95;76.98;102170.04;104602;1257;138687;-60
2024/01/31 01:45:11;;;;;;;40.50;26.70;;;;;;;4.96;76.96;102174.45;105088;1259;66819;-59
2024/01/31 01:47:38;;;;;;;42.00;27.00;;;;;;;4.97;76.96;102176.93;105017;1257;138339;-59
2024/01/31 01:50:05;;;;;;;44.00;25.70;;;;;;;4.99;77.05;102179.91;104875;1255;61355;-60
2024/01/31 01:52:32;;;;;;;46.20;26.90;;;;;;;5.00;77.04;102184.69;108967;1255;62128;-60
2024/01/31 01:55:02;;;;;;;51.10;27.20;;;;;;;5.03;77.00;102182.06;108817;1254;138615;-60
2024/01/31 01:57:32;;;;;;;52.10;27.30;;;;;;;5.05;77.05;102177.86;109201;1254;67363;-59
2024/01/31 01:59:59;;;;;;;44.80;25.80;;;;;;;5.08;77.05;102179.64;108991;1254;138879;-58
2024/01/31 02:02:26;;;;;;;47.00;27.40;;;;;;;5.11;77.01;102181.92;108911;1254;59195;-58
2024/01/31 02:04:53;;;;;;;52.20;27.30;;;;;;;5.14;77.09;102181.98;109010;1260;59022;-58
2024/01/31 02:07:24;;;;;;;60.30;28.90;;;;;;;5.19;77.13;102184.07;109080;1254;139213;-58
2024/01/31 02:09:52;;;;;;;53.70;27.70;;;;;;;5.23;77.07;102177.04;108883;1255;66434;-58
2024/01/31 02:12:19;;;;;;;56.10;28.40;;;;;;;5.26;77.09;102176.02;108281;1257;139402;-60
2024/01/31 02:14:47;;;;;;;55.90;28.60;;;;;;;5.30;77.19;102177.51;108967;1257;59251;-59
2024/01/31 02:17:14;;;;;;;47.60;25.00;;;;;;;5.32;77.13;102180.66;108967;1254;138665;-59
2024/01/31 02:19:41;;;;;;;51.30;26.40;;;;;;;5.35;77.11;102182.02;109009;1256;74750;-58
2024/01/31 02:22:18;;;;;;;48.20;25.20;;;;;;;5.37;77.24;102177.50;109029;1255;65467;-61
2024/01/31 02:24:45;;;;;;;46.30;25.50;;;;;;;5.41;77.29;102175.66;108882;1254;137971;-58
2024/01/31 02:27:12;;;;;;;46.40;26.20;;;;;;;5.43;77.25;102173.73;107684;1259;61228;-60
2024/01/31 02:29:39;;;;;;;48.40;25.60;;;;;;;5.43;77.30;102173.41;109045;1256;138266;-61
2024/01/31 02:32:06;;;;;;;46.90;24.80;;;;;;;5.46;77.27;102166.77;109088;1254;73814;-58
2024/01/31 02:34:32;;;;;;;43.00;24.60;;;;;;;5.46;77.23;102165.55;108901;1262;65139;-59
2024/01/31 02:36:59;;;;;;;44.30;25.00;;;;;;;5.46;77.26;102163.98;109104;1254;138666;-59
2024/01/31 02:39:26;;;;;;;45.40;25.00;;;;;;;5.46;77.24;102164.33;106388;1257;61360;-60
2024/01/31 02:41:53;;;;;;;46.80;23.60;;;;;;;5.43;77.33;102160.34;104860;1260;138983;-60
2024/01/31 02:44:20;;;;;;;49.70;24.90;;;;;;;5.40;77.31;102156.11;105006;1259;75864;-59
2024/01/31 02:46:47;;;;;;;41.80;24.70;;;;;;;5.39;77.42;102153.98;104954;1261;66181;-59
2024/01/31 02:49:13;;;;;;;49.10;24.30;;;;;;;5.37;77.50;102148.62;104929;1254;138760;-59
2024/01/31 02:51:40;;;;;;;39.80;23.00;;;;;;;5.34;77.53;102148.04;104721;1255;61346;-61
2024/01/31 02:54:07;;;;;;;47.70;24.80;;;;;;;5.32;77.72;102151.52;104852;1260;138350;-59
2024/01/31 02:56:34;;;;;;;41.00;23.40;;;;;;;5.31;77.86;102154.77;105024;1257;75741;-60
2024/01/31 02:59:01;;;;;;;52.60;25.90;;;;;;;5.30;78.01;102154.37;104909;1259;138152;-59
2024/01/31 03:01:27;;;;;;;46.00;24.70;;;;;;;5.30;78.19;102153.35;104988;1259;72803;-58
2024/01/31 03:03:54;;;;;;;43.50;24.40;;;;;;;5.28;78.17;102154.59;104941;1257;59927;-60
2024/01/31 03:06:21;;;;;;;44.30;24.70;;;;;;;5.23;78.25;102157.77;104894;1259;138888;-58
2024/01/31 03:08:48;;;;;;;44.60;25.70;;;;;;;5.20;78.32;102156.16;105055;1255;75292;-58
2024/01/31 03:11:14;;;;;;;44.20;25.20;;;;;;;5.17;78.42;102150.37;104887;1260;139299;-59
2024/01/31 03:13:41;;;;;;;46.30;25.50;;;;;;;5.14;78.52;102144.37;104967;1259;72504;-58
2024/01/31 03:16:08;;;;;;;48.10;25.30;;;;;;;5.14;78.59;102151.52;105033;1257;61281;-59
2024/01/31 03:18:35;;;;;;;48.80;23.90;;;;;;;5.11;78.66;102150.12;104819;1257;139004;-59
2024/01/31 03:21:02;;;;;;;49.50;24.30;;;;;;;5.09;78.65;102148.38;105004;1259;74286;-58
2024/01/31 03:23:29;;;;;;;44.00;22.90;;;;;;;5.07;78.73;102149.48;109083;1254;140290;-58
2024/01/31 03:25:56;;;;;;;46.00;23.70;;;;;;;5.03;78.75;102146.94;108869;1256;71089;-59
2024/01/31 03:28:23;;;;;;;46.90;23.40;;;;;;;5.02;78.91;102148.96;108983;1260;59391;-59
2024/01/31 03:30:50;;;;;;;43.40;24.20;;;;;;;5.02;78.93;102149.32;109051;1257;139419;-59
2024/01/31 03:33:17;;;;;;;46.80;23.80;;;;;;;5.05;79.08;102154.40;109191;1258;73443;-59
2024/01/31 03:35:44;;;;;;;49.20;25.20;;;;;;;5.05;79.25;102153.21;109083;1254;138878;-59
2024/01/31 03:38:10;;;;;;;43.70;23.00;;;;;;;5.09;79.27;102154.15;109206;1254;72617;-59
2024/01/31 03:40:37;;;;;;;50.90;23.60;;;;;;;5.12;79.34;102157.10;109040;1254;58967;-59
2024/01/31 03:43:04;;;;;;;38.20;23.20;;;;;;;5.16;79.45;102158.09;108906;1259;138992;-59
2024/01/31 03:45:31;;;;;;;43.00;24.60;;;;;;;5.20;79.49;102163.27;109172;1254;73395;-59
2024/01/31 03:47:58;;;;;;;41.50;24.40;;;;;;;5.25;79.59;102158.75;109108;1255;139161;-59
2024/01/31 03:50:24;;;;;;;42.20;26.00;;;;;;;5.30;79.60;102159.23;109155;1256;72730;-59
2024/01/31 03:52:51;;;;;;;37.20;23.10;;;;;;;5.35;79.70;102159.76;108938;1256;59324;-59
2024/01/31 03:55:18;;;;;;;49.10;25.80;;;;;;;5.39;79.79;102160.38;106008;1254;138793;-60
2024/01/31 03:57:45;;;;;;;43.30;25.20;;;;;;;5.43;79.86;102154.59;108997;1255;76227;-59
2024/01/31 04:00:12;;;;;;;45.10;25.00;;;;;;;5.49;79.80;102157.01;108912;1254;138866;-59
2024/01/31 04:02:39;;;;;;;43.20;26.00;;;;;;;5.52;79.77;102157.76;109213;1258;71382;-59
2024/01/31 04:05:09;;;;;;;49.50;26.20;;;;;;;5.53;79.76;102158.02;108914;1257;138221;-59
2024/01/31 04:07:36;;;;;;;36.40;24.50;;;;;;;5.52;79.68;102161.98;108889;1258;59146;-59
2024/01/31 04:10:03;;;;;;;48.40;26.50;;;;;;;5.49;79.67;102161.22;109172;1258;74378;-59
2024/01/31 04:12:30;;;;;;;43.60;25.50;;;;;;;5.44;79.56;102155.15;107432;1259;138590;-58
2024/01/31 04:14:57;;;;;;;39.80;24.20;;;;;;;5.37;79.46;102160.98;105017;1258;73364;-59
2024/01/31 04:17:23;;;;;;;45.00;25.90;;;;;;;5.29;79.49;102160.89;104934;1260;139335;-58
2024/01/31 04:19:50;;;;;;;45.60;25.10;;;;;;;5.22;79.50;102163.74;105034;1258;61171;-58
2024/01/31 04:22:17;;;;;;;41.00;24.50;;;;;;;5.15;79.68;102161.02;105027;1266;73828;-59
2024/01/31 04:24:44;;;;;;;48.00;25.20;;;;;;;5.09;79.76;102160.59;104702;1261;139353;-59
2024/01/31 04:27:11;;;;;;;42.90;24.50;;;;;;;5.05;79.89;102166.75;108877;1254;73318;-59
2024/01/31 04:29:39;;;;;;;43.80;25.30;;;;;;;5.01;79.93;102167.66;109082;1256;139660;-59
2024/01/31 04:32:06;;;;;;;46.60;26.30;;;;;;;4.95;80.02;102165.17;109193;1256;60587;-59
2024/01/31 04:34:35;;;;;;;42.90;23.90;;;;;;;4.91;80.07;102163.34;109224;1254;74452;-59
2024/01/31 04:37:01;;;;;;;41.30;25.30;;;;;;;4.87;80.20;102163.39;105585;1259;139635;-60
2024/01/31 04:39:28;;;;;;;41.40;23.40;;;;;;;4.85;80.24;102166.00;104995;1260;73094;-59
2024/01/31 04:41:55;;;;;;;37.20;23.60;;;;;;;4.80;80.21;102172.66;104916;1260;139015;-59
2024/01/31 04:44:22;;;;;;;41.30;24.10;;;;;;;4.74;80.23;102176.73;105037;1259;61312;-60
2024/01/31 04:46:49;;;;;;;40.30;24.80;;;;;;;4.67;80.40;102179.59;105039;1260;76191;-60
2024/01/31 04:49:16;;;;;;;41.60;24.10;;;;;;;4.66;80.57;102177.42;108915;1257;138922;-60
2024/01/31 04:51:43;;;;;;;41.20;24.70;;;;;;;4.68;80.72;102173.21;109061;1254;71796;-58
2024/01/31 04:54:10;;;;;;;42.50;24.60;;;;;;;4.66;80.68;102166.60;108777;1257;139727;-60
2024/01/31 04:56:36;;;;;;;39.20;23.30;;;;;;;4.65;80.73;102164.42;109159;1255;59200;-58
2024/01/31 04:59:03;;;;;;;37.30;22.90;;;;;;;4.65;80.78;102160.66;105296;1259;139279;-59
2024/01/31 05:01:30;;;;;;;40.00;24.20;;;;;;;4.65;80.94;102160.48;104875;1260;67242;-60
2024/01/31 05:03:57;;;;;;;38.00;23.80;;;;;;;4.66;81.04;102161.56;104760;1260;73721;-59
2024/01/31 05:06:24;;;;;;;35.20;23.80;;;;;;;4.66;81.07;102164.38;104698;1260;139000;-59
2024/01/31 05:08:51;;;;;;;37.00;23.20;;;;;;;4.66;81.09;102163.65;104839;1262;59707;-59
2024/01/31 05:11:17;;;;;;;41.40;24.00;;;;;;;4.66;81.13;102161.77;104626;1262;139336;-60
2024/01/31 05:13:44;;;;;;;35.00;23.60;;;;;;;4.70;81.28;102162.89;104737;1260;66691;-60
2024/01/31 05:16:11;;;;;;;34.20;22.80;;;;;;;4.72;81.26;102159.72;104876;1261;73960;-60
2024/01/31 05:18:39;;;;;;;38.50;24.10;;;;;;;4.75;81.36;102158.19;104836;1260;138946;-59
2024/01/31 05:21:08;;;;;;;37.50;23.50;;;;;;;4.76;81.24;102160.20;104855;1263;61302;-60
2024/01/31 05:23:35;;;;;;;36.30;24.10;;;;;;;4.76;81.18;102163.48;109063;1254;138789;-59
2024/01/31 05:26:07;;;;;;;37.30;23.00;;;;;;;4.75;81.24;102162.18;108988;1257;64669;-60
2024/01/31 05:28:34;;;;;;;39.00;23.90;;;;;;;4.77;81.35;102161.15;108872;1257;73025;-60
2024/01/31 05:31:01;;;;;;;38.40;23.20;;;;;;;4.81;81.38;102167.50;106427;1255;138577;-60
2024/01/31 05:33:27;;;;;;;41.60;24.80;;;;;;;4.83;81.47;102166.80;105004;1260;61308;-59
2024/01/31 05:35:56;;;;;;;36.70;23.60;;;;;;;4.87;81.44;102166.05;108835;1254;139640;-60
2024/01/31 05:38:23;;;;;;;38.20;24.30;;;;;;;4.92;81.54;102163.91;109233;1254;66243;-60
2024/01/31 05:40:49;;;;;;;36.90;23.90;;;;;;;4.95;81.49;102164.33;109153;1254;71069;-60
2024/01/31 05:43:18;;;;;;;37.80;22.70;;;;;;;4.98;81.51;102167.64;109053;1257;139547;-60
2024/01/31 05:45:44;;;;;;;40.20;23.60;;;;;;;5.02;81.42;102167.21;109062;1265;61819;-60
2024/01/31 05:48:12;;;;;;;33.90;22.90;;;;;;;5.05;81.43;102160.52;109096;1254;138874;-60
2024/01/31 05:50:39;;;;;;;39.90;22.40;;;;;;;5.10;81.54;102157.49;108837;1259;66265;-60
2024/01/31 05:53:06;;;;;;;36.10;23.00;;;;;;;5.15;81.58;102155.96;104734;1260;139920;-60
2024/01/31 05:55:34;;;;;;;39.20;23.70;;;;;;;5.16;81.44;102153.63;104901;1255;62709;-60
2024/01/31 05:58:00;;;;;;;37.70;22.40;;;;;;;5.18;81.45;102154.98;104854;1260;61135;-60
2024/01/31 06:00:27;;;;;;;38.30;22.80;;;;;;;5.21;81.56;102157.58;104659;1260;138928;-60
2024/01/31 06:02:54;;;;;;;34.30;22.20;;;;;;;5.24;81.51;102160.06;105074;1259;66053;-60
2024/01/31 06:05:22;;;;;;;36.80;21.70;;;;;;;5.26;81.62;102154.14;109039;1254;139113;-59
2024/01/31 06:07:49;;;;;;;37.60;23.20;;;;;;;5.29;81.58;102153.22;107349;1260;61003;-61
2024/01/31 06:10:15;;;;;;;38.30;22.50;;;;;;;5.30;81.50;102154.23;105034;1260;61511;-60
2024/01/31 06:12:42;;;;;;;32.40;23.00;;;;;;;5.32;81.46;102155.39;104910;1258;139258;-61
2024/01/31 06:15:09;;;;;;;32.70;22.00;;;;;;;5.33;81.54;102155.65;105015;1260;66741;-60
2024/01/31 06:17:37;;;;;;;39.70;22.70;;;;;;;5.35;81.51;102151.41;108898;1259;140134;-60
2024/01/31 06:20:05;;;;;;;33.30;22.00;;;;;;;5.37;81.49;102151.86;109198;1254;64729;-61
2024/01/31 06:22:32;;;;;;;31.10;21.40;;;;;;;5.39;81.59;102153.27;109178;1254;59890;-59
2024/01/31 06:24:59;;;;;;;33.80;21.40;;;;;;;5.44;81.66;102156.75;107080;1259;138795;-60
2024/01/31 06:27:26;;;;;;;37.70;22.10;;;;;;;5.49;81.52;102157.89;105012;1254;66000;-60
2024/01/31 06:29:52;;;;;;;36.00;21.60;;;;;;;5.53;81.63;102155.59;104858;1259;138902;-59
2024/01/31 06:32:22;;;;;;;33.60;20.70;;;;;;;5.59;81.76;102153.92;105102;1260;61342;-60
2024/01/31 06:34:52;;;;;;;31.40;20.60;;;;;;;5.62;81.72;102157.29;108954;1256;59998;-60
2024/01/31 06:37:19;;;;;;;29.80;20.70;;;;;;;5.66;81.77;102155.42;108348;1258;138716;-60
2024/01/31 06:39:46;;;;;;;36.30;20.80;;;;;;;5.72;81.79;102157.38;104819;1264;66700;-60
2024/01/31 06:42:12;;;;;;;37.30;21.80;;;;;;;5.76;81.74;102159.79;104944;1259;138735;-59
2024/01/31 06:44:39;;;;;;;33.60;21.40;;;;;;;5.79;81.78;102155.10;105181;1255;61243;-59
2024/01/31 06:47:06;;;;;;;34.40;20.50;;;;;;;5.83;81.80;102159.54;104788;1254;138917;-59
2024/01/31 06:49:33;;;;;;;31.90;20.60;;;;;;;5.85;81.70;102159.84;104996;1261;73718;-59
2024/01/31 06:51:59;;;;;;;29.80;20.80;;;;;;;5.88;81.81;102158.98;104799;1260;65708;-62
2024/01/31 06:54:26;;;;;;;29.50;20.20;;;;;;;5.90;81.67;102159.48;104643;1264;138440;-60
2024/01/31 06:56:53;;;;;;;28.60;20.80;;;;;;;5.90;81.61;102159.48;105112;1260;61372;-60
2024/01/31 06:59:20;;;;;;;32.50;20.60;;;;;;;5.89;81.58;102163.41;104924;1259;138341;-60
2024/01/31 07:01:47;;;;;;;33.00;22.80;;;;;;;5.88;81.53;102165.45;109096;1254;75788;-60
2024/01/31 07:04:13;;;;;;;35.10;28.40;;;;;;;5.89;81.66;102166.33;106858;1259;66627;-60
2024/01/31 07:06:40;;;;;;;60.70;45.10;;;;;;;5.90;81.66;102169.73;104904;1259;139150;-60
2024/01/31 07:09:07;;;;;;;41.90;28.30;;;;;;;5.90;81.61;102173.41;105002;1260;61353;-59
2024/01/31 07:11:34;;;;;;;41.00;29.90;;;;;;;5.90;81.67;102172.58;108924;1256;139146;-60
2024/01/31 07:14:01;;;;;;;54.50;40.80;;;;;;;5.93;81.71;102174.30;108231;1260;73436;-60
2024/01/31 07:16:28;;;;;;;66.90;48.10;;;;;;;5.95;81.81;102172.58;104952;1260;67052;-60
2024/01/31 07:18:55;;;;;;;100.80;76.30;;;;;;;6.01;81.83;102186.22;104924;1257;139591;-58
2024/01/31 07:21:25;;;;;;;73.90;56.30;;;;;;;6.05;81.88;102182.41;105106;1258;59899;-60
2024/01/31 07:23:52;;;;;;;86.70;68.50;;;;;;;6.08;81.91;102181.25;105001;1260;138982;-60
2024/01/31 07:26:23;;;;;;;120.30;79.70;;;;;;;6.10;81.94;102178.27;104810;1261;74039;-60
2024/01/31 07:28:50;;;;;;;80.80;56.50;;;;;;;6.11;81.76;102175.66;104880;1255;67444;-62
2024/01/31 07:31:17;;;;;;;112.10;76.50;;;;;;;6.11;81.78;102176.51;107272;1254;138916;-60
2024/01/31 07:33:45;;;;;;;84.40;57.10;;;;;;;6.16;82.00;102177.55;104900;1254;61371;-60
2024/01/31 07:36:11;;;;;;;105.10;70.30;;;;;;;6.20;81.96;102176.62;109076;1260;139107;-61
2024/01/31 07:38:43;;;;;;;62.20;46.30;;;;;;;6.23;81.84;102175.24;104882;1260;75212;-60
2024/01/31 07:41:10;;;;;;;63.40;46.70;;;;;;;6.27;81.91;102177.23;104563;1265;138874;-60
2024/01/31 07:43:37;;;;;;;89.40;61.00;;;;;;;6.31;81.91;102184.66;105011;1258;73256;-60
2024/01/31 07:46:04;;;;;;;64.70;41.60;;;;;;;6.38;82.08;102187.05;108971;1254;59213;-61
2024/01/31 07:48:31;;;;;;;84.70;56.60;;;;;;;6.47;82.05;102192.34;108851;1254;139070;-60
2024/01/31 07:51:01;;;;;;;43.70;30.50;;;;;;;6.53;82.07;102192.72;109230;1254;74683;-61
2024/01/31 07:53:28;;;;;;;57.20;39.90;;;;;;;6.58;81.94;102190.61;108540;1257;139415;-60
2024/01/31 07:55:55;;;;;;;73.80;50.80;;;;;;;6.58;81.75;102191.63;104984;1254;73003;-59
2024/01/31 07:58:22;;;;;;;62.60;44.90;;;;;;;6.54;81.55;102191.92;108978;1254;64665;-59
2024/01/31 08:00:49;;;;;;;84.00;57.40;;;;;;;6.48;81.41;102191.31;108789;1254;138741;-59
2024/01/31 08:03:15;;;;;;;74.30;50.20;;;;;;;6.42;81.40;102191.66;109156;1257;74100;-59
2024/01/31 08:05:42;;;;;;;60.20;41.10;;;;;;;6.41;81.59;102190.93;108778;1254;139139;-60
2024/01/31 08:08:09;;;;;;;59.10;40.90;;;;;;;6.43;81.73;102191.41;105020;1260;74414;-61
2024/01/31 08:10:36;;;;;;;49.50;33.10;;;;;;;6.50;81.96;102189.36;104788;1260;61282;-59
2024/01/31 08:13:04;;;;;;;52.20;36.50;;;;;;;6.57;81.95;102193.11;104959;1255;138951;-61
2024/01/31 08:15:31;;;;;;;45.50;29.30;;;;;;;6.61;82.00;102190.09;108936;1254;75483;-59
2024/01/31 08:17:58;;;;;;;37.00;26.30;;;;;;;6.71;82.17;102186.88;109098;1254;139421;-60
2024/01/31 08:20:25;;;;;;;109.70;74.00;;;;;;;6.81;82.26;102182.48;109142;1255;71611;-60
2024/01/31 08:22:51;;;;;;;85.30;61.30;;;;;;;6.86;82.04;102177.36;108933;1254;59210;-60
2024/01/31 08:25:18;;;;;;;63.60;46.70;;;;;;;6.87;81.91;102174.78;106938;1254;139800;-59
2024/01/31 08:27:48;;;;;;;49.10;35.90;;;;;;;6.90;82.06;102172.19;104972;1258;75177;-59
2024/01/31 08:30:18;;;;;;;36.50;28.40;;;;;;;7.02;82.31;102169.62;104893;1254;139011;-59
2024/01/31 08:32:46;;;;;;;37.80;28.10;;;;;;;7.17;82.35;102164.98;105050;1264;73873;-60
2024/01/31 08:35:13;;;;;;;38.00;28.50;;;;;;;7.32;82.38;102163.30;104849;1259;138540;-59
2024/01/31 08:37:39;;;;;;;43.10;30.90;;;;;;;7.51;82.46;102165.80;104679;1262;61183;-59
2024/01/31 08:40:10;;;;;;;31.50;23.30;;;;;;;7.68;82.29;102165.56;105044;1254;73849;-59
2024/01/31 08:42:38;;;;;;;32.70;27.00;;;;;;;7.82;82.09;102168.33;109055;1254;138114;-61
2024/01/31 08:45:07;;;;;;;40.10;31.60;;;;;;;7.88;81.85;102168.88;108977;1256;71365;-61
2024/01/31 08:47:34;;;;;;;36.60;30.60;;;;;;;7.93;81.62;102170.56;109049;1254;138791;-60
2024/01/31 08:50:01;;;;;;;39.90;31.00;;;;;;;7.97;81.37;102166.92;109102;1254;60575;-60
2024/01/31 08:52:28;;;;;;;30.60;26.10;;;;;;;7.95;81.22;102163.52;108912;1254;75848;-60
2024/01/31 08:54:54;;;;;;;27.70;20.90;;;;;;;7.95;81.07;102159.66;108897;1254;139246;-60
2024/01/31 08:57:21;;;;;;;25.00;19.70;;;;;;;7.89;80.83;102154.25;108977;1256;70590;-60
2024/01/31 08:59:48;;;;;;;28.90;20.60;;;;;;;7.84;80.84;102159.86;108997;1254;140485;-60
2024/01/31 09:02:15;;;;;;;30.00;18.80;;;;;;;7.80;80.89;102160.73;108979;1254;59060;-61
2024/01/31 09:04:42;;;;;;;26.00;20.40;;;;;;;7.87;81.18;102161.27;108920;1254;73424;-60
2024/01/31 09:07:08;;;;;;;26.50;21.50;;;;;;;8.03;81.36;102166.07;109040;1254;138999;-60
2024/01/31 09:09:38;;;;;;;39.90;30.50;;;;;;;8.21;81.51;102166.38;108986;1254;72793;-61
2024/01/31 09:12:05;;;;;;;24.70;17.90;;;;;;;8.44;81.59;102168.05;106142;1255;139384;-60
2024/01/31 09:14:33;;;;;;;20.80;15.90;;;;;;;8.65;81.37;102171.19;109155;1254;59524;-61
2024/01/31 09:17:00;;;;;;;19.30;15.30;;;;;;;8.78;81.05;102169.43;108961;1254;138021;-61
2024/01/31 09:19:27;;;;;;;19.20;14.60;;;;;;;8.85;80.75;102169.67;109082;1254;66781;-60
2024/01/31 09:21:54;;;;;;;16.80;13.80;;;;;;;8.90;80.42;102170.46;109177;1254;71825;-60
2024/01/31 09:24:21;;;;;;;19.10;13.40;;;;;;;8.93;80.23;102169.92;108717;1254;177390;-60
2024/01/31 09:26:47;;;;;;;16.30;13.80;;;;;;;8.96;80.22;102168.14;108945;1254;59317;-58
2024/01/31 09:29:14;;;;;;;15.50;12.70;;;;;;;8.94;79.94;102167.54;108852;1254;139045;-61
2024/01/31 09:31:41;;;;;;;15.50;12.30;;;;;;;8.92;79.84;102166.36;108460;1254;65284;-60
2024/01/31 09:34:08;;;;;;;14.40;11.90;;;;;;;8.89;79.87;102171.98;104780;1260;72512;-60
2024/01/31 09:36:35;;;;;;;14.20;11.20;;;;;;;8.85;79.60;102177.36;109056;1254;138800;-60
2024/01/31 09:39:03;;;;;;;15.60;11.00;;;;;;;8.82;79.66;102178.39;109147;1254;58976;-60
2024/01/31 09:41:30;;;;;;;12.70;10.90;;;;;;;8.84;79.79;102174.83;109051;1254;138942;-61
2024/01/31 09:43:57;;;;;;;11.00;9.60;;;;;;;8.86;79.83;102170.23;108985;1254;65116;-58
2024/01/31 09:46:24;;;;;;;12.50;9.30;;;;;;;8.87;79.59;102166.05;108977;1254;71072;-60
2024/01/31 09:48:50;;;;;;;10.40;8.10;;;;;;;8.84;79.59;102159.77;109089;1254;137949;-61
2024/01/31 09:51:17;;;;;;;12.40;9.80;;;;;;;8.80;79.54;102156.60;106039;1262;61271;-60
2024/01/31 09:53:45;;;;;;;11.80;9.50;;;;;;;8.79;79.52;102151.13;108808;1254;137912;-60
2024/01/31 09:56:11;;;;;;;13.40;9.40;;;;;;;8.74;79.34;102149.30;109011;1254;64517;-60
2024/01/31 09:58:39;;;;;;;11.10;8.60;;;;;;;8.68;79.24;102146.49;108903;1255;73046;-59
2024/01/31 10:01:05;;;;;;;9.80;8.30;;;;;;;8.64;79.44;102145.94;108853;1255;138588;-59
2024/01/31 10:03:32;;;;;;;11.50;8.60;;;;;;;8.59;79.30;102143.21;108999;1257;60380;-60
2024/01/31 10:06:03;;;;;;;9.50;7.70;;;;;;;8.54;79.30;102138.04;109036;1254;138623;-60
2024/01/31 10:08:29;;;;;;;9.70;6.80;;;;;;;8.47;79.14;102135.39;108915;1255;67408;-60
2024/01/31 10:10:56;;;;;;;8.80;7.20;;;;;;;8.40;79.10;102130.07;108947;1254;72447;-61
2024/01/31 10:13:23;;;;;;;7.50;6.70;;;;;;;8.38;79.24;102135.56;109069;1254;138265;-60
2024/01/31 10:15:50;;;;;;;7.90;4.80;;;;;;;8.37;79.10;102137.57;108902;1257;60335;-60
2024/01/31 10:18:17;;;;;;;6.40;5.30;;;;;;;8.37;79.10;102142.45;109088;1254;137709;-67
2024/01/31 10:20:50;;;;;;;4.30;3.40;;;;;;;8.38;79.08;102148.13;108904;1254;64728;-60
2024/01/31 10:23:17;;;;;;;4.20;3.40;;;;;;;8.38;78.99;102150.25;109061;1254;138268;-60
2024/01/31 10:25:43;;;;;;;4.90;2.80;;;;;;;8.39;78.98;102148.89;105403;1254;61869;-59
2024/01/31 10:28:10;;;;;;;3.00;2.70;;;;;;;8.42;78.88;102145.01;105038;1254;61329;-59
2024/01/31 10:30:43;;;;;;;2.30;2.10;;;;;;;8.44;78.87;102147.25;104603;1256;138609;-60
2024/01/31 10:33:10;;;;;;;2.60;2.00;;;;;;;8.44;78.70;102153.89;108923;1254;67567;-59
2024/01/31 10:35:36;;;;;;;2.10;1.90;;;;;;;8.42;78.67;102150.48;108832;1254;138701;-58
2024/01/31 10:38:04;;;;;;;2.10;1.80;;;;;;;8.44;78.65;102150.23;108881;1256;60595;-59
2024/01/31 10:40:31;;;;;;;5.40;3.90;;;;;;;8.45;78.60;102151.68;109179;1254;59070;-59
2024/01/31 10:42:58;;;;;;;2.70;1.90;;;;;;;8.44;78.58;102150.95;108890;1256;137645;-59
2024/01/31 10:45:25;;;;;;;3.20;2.10;;;;;;;8.46;78.56;102155.77;108997;1256;66716;-59
2024/01/31 10:47:52;;;;;;;3.10;1.80;;;;;;;8.45;78.44;102160.80;108038;1254;137826;-60
2024/01/31 10:50:19;;;;;;;1.40;1.20;;;;;;;8.44;78.45;102171.05;109113;1254;59015;-58
2024/01/31 10:52:46;;;;;;;2.20;1.40;;;;;;;8.40;78.47;102170.83;108954;1256;61639;-59
2024/01/31 10:55:13;;;;;;;2.40;1.40;;;;;;;8.38;78.40;102174.91;109115;1254;138988;-58
2024/01/31 10:57:41;;;;;;;1.90;1.20;;;;;;;8.36;78.44;102177.55;108987;1254;65568;-58
2024/01/31 11:00:09;;;;;;;1.60;1.10;;;;;;;8.30;78.26;102181.98;108815;1254;138748;-58
2024/01/31 11:02:39;;;;;;;1.80;1.30;;;;;;;8.20;77.79;102174.23;108928;1256;60015;-59
2024/01/31 11:05:06;;;;;;;2.00;1.30;;;;;;;8.13;77.76;102172.41;108848;1254;138833;-59
2024/01/31 11:07:34;;;;;;;1.60;1.50;;;;;;;8.12;78.01;102182.83;109125;1254;75145;-60